sensor_id;sensor_type;location;lat;lon;timestamp;pressure;altitude;pressure_sealevel;temperature;humidity
65276;BME280;51875;49.994;14.052;2023-01-28T00:01:04;98895.97;;;1.00;100.00
65276;BME280;51875;49.994;14.052;2023-01-28T00:02:19;98903.53;;;0.90;100.00
65276;BME280;51875;49.994;14.052;2023-01-28T00:03:36;98901.13;;;1.00;100.00
65276;BME280;51875;49.994;14.052;2023-01-28T00:04:51;98895.34;;;1.15;100.00
65276;BME280;51875;49.994;14.052;2023-01-28T00:06:12;98899.97;;;1.33;100.00
65276;BME280;51875;49.994;14.052;2023-01-28T00:07:28;98893.13;;;1.33;100.00
65276;BME280;51875;49.994;14.052;2023-01-28T00:08:44;98897.09;;;1.14;100.00
65276;BME280;51875;49.994;14.052;2023-01-28T00:10:00;98898.19;;;0.81;100.00
65276;BME280;51875;49.994;14.052;2023-01-28T00:11:15;98897.00;;;1.09;100.00
65276;BME280;51875;49.994;14.052;2023-01-28T00:12:31;98890.53;;;1.33;100.00
65276;BME280;51875;49.994;14.052;2023-01-28T00:13:51;98890.13;;;0.62;100.00
65276;BME280;51875;49.994;14.052;2023-01-28T00:15:07;98889.03;;;0.97;100.00
65276;BME280;51875;49.994;14.052;2023-01-28T00:16:23;98889.34;;;1.14;100.00
65276;BME280;51875;49.994;14.052;2023-01-28T00:17:39;98892.78;;;1.15;100.00
65276;BME280;51875;49.994;14.052;2023-01-28T00:18:54;98889.41;;;1.19;100.00
65276;BME280;51875;49.994;14.052;2023-01-28T00:20:10;98888.88;;;1.38;100.00
65276;BME280;51875;49.994;14.052;2023-01-28T00:21:25;98893.97;;;1.34;100.00
65276;BME280;51875;49.994;14.052;2023-01-28T00:22:46;98894.75;;;1.30;100.00
65276;BME280;51875;49.994;14.052;2023-01-28T00:24:02;98892.59;;;1.04;100.00
65276;BME280;51875;49.994;14.052;2023-01-28T00:25:18;98895.91;;;0.96;100.00
65276;BME280;51875;49.994;14.052;2023-01-28T00:26:34;98899.69;;;0.69;100.00
65276;BME280;51875;49.994;14.052;2023-01-28T00:27:50;98902.44;;;0.77;100.00
65276;BME280;51875;49.994;14.052;2023-01-28T00:29:06;98898.47;;;0.95;100.00
65276;BME280;51875;49.994;14.052;2023-01-28T00:30:22;98893.94;;;0.81;100.00
65276;BME280;51875;49.994;14.052;2023-01-28T00:31:37;98891.78;;;1.06;100.00
65276;BME280;51875;49.994;14.052;2023-01-28T00:32:55;98889.41;;;1.17;100.00
65276;BME280;51875;49.994;14.052;2023-01-28T00:34:11;98900.22;;;0.97;100.00
65276;BME280;51875;49.994;14.052;2023-01-28T00:35:26;98897.06;;;0.65;100.00
65276;BME280;51875;49.994;14.052;2023-01-28T00:36:42;98896.81;;;0.98;100.00
65276;BME280;51875;49.994;14.052;2023-01-28T00:37:58;98896.66;;;0.89;100.00
65276;BME280;51875;49.994;14.052;2023-01-28T00:39:14;98893.44;;;1.03;100.00
65276;BME280;51875;49.994;14.052;2023-01-28T00:40:30;98893.41;;;1.00;100.00
65276;BME280;51875;49.994;14.052;2023-01-28T00:41:45;98906.69;;;0.75;100.00
65276;BME280;51875;49.994;14.052;2023-01-28T00:43:01;98890.06;;;1.07;100.00
65276;BME280;51875;49.994;14.052;2023-01-28T00:44:17;98900.88;;;0.41;100.00
65276;BME280;51875;49.994;14.052;2023-01-28T00:45:33;98900.72;;;0.78;100.00
65276;BME280;51875;49.994;14.052;2023-01-28T00:46:48;98897.56;;;0.93;100.00
65276;BME280;51875;49.994;14.052;2023-01-28T00:48:04;98897.13;;;1.19;100.00
65276;BME280;51875;49.994;14.052;2023-01-28T00:49:21;98898.91;;;1.21;100.00
65276;BME280;51875;49.994;14.052;2023-01-28T00:50:36;98904.06;;;1.20;100.00
65276;BME280;51875;49.994;14.052;2023-01-28T00:51:53;98900.91;;;0.89;100.00
65276;BME280;51875;49.994;14.052;2023-01-28T00:53:09;98906.16;;;0.92;100.00
65276;BME280;51875;49.994;14.052;2023-01-28T00:54:25;98904.47;;;0.95;100.00
65276;BME280;51875;49.994;14.052;2023-01-28T00:55:40;98899.56;;;1.09;100.00
65276;BME280;51875;49.994;14.052;2023-01-28T00:56:55;98900.59;;;1.19;100.00
65276;BME280;51875;49.994;14.052;2023-01-28T00:58:11;98899.88;;;1.26;100.00
65276;BME280;51875;49.994;14.052;2023-01-28T00:59:27;98901.06;;;0.96;100.00
65276;BME280;51875;49.994;14.052;2023-01-28T01:00:42;98906.09;;;0.90;100.00
65276;BME280;51875;49.994;14.052;2023-01-28T01:01:58;98900.91;;;0.89;100.00
65276;BME280;51875;49.994;14.052;2023-01-28T01:03:26;98897.34;;;1.30;100.00
65276;BME280;51875;49.994;14.052;2023-01-28T01:04:42;98902.59;;;1.36;100.00
65276;BME280;51875;49.994;14.052;2023-01-28T01:06:09;98901.81;;;1.41;100.00
65276;BME280;51875;49.994;14.052;2023-01-28T01:07:28;98896.91;;;1.57;100.00
65276;BME280;51875;49.994;14.052;2023-01-28T01:08:49;98912.25;;;1.48;100.00
65276;BME280;51875;49.994;14.052;2023-01-28T01:10:13;98903.59;;;1.44;100.00
65276;BME280;51875;49.994;14.052;2023-01-28T01:11:29;98905.16;;;1.34;100.00
65276;BME280;51875;49.994;14.052;2023-01-28T01:12:46;98909.34;;;1.29;100.00
65276;BME280;51875;49.994;14.052;2023-01-28T01:14:02;98912.81;;;1.30;100.00
65276;BME280;51875;49.994;14.052;2023-01-28T01:15:19;98907.16;;;1.51;100.00
65276;BME280;51875;49.994;14.052;2023-01-28T01:16:35;98911.34;;;1.44;100.00
65276;BME280;51875;49.994;14.052;2023-01-28T01:17:53;98911.25;;;1.39;100.00
65276;BME280;51875;49.994;14.052;2023-01-28T01:19:08;98909.69;;;1.49;100.00
65276;BME280;51875;49.994;14.052;2023-01-28T01:20:27;98908.47;;;1.27;100.00
65276;BME280;51875;49.994;14.052;2023-01-28T01:21:43;98902.56;;;1.33;100.00
65276;BME280;51875;49.994;14.052;2023-01-28T01:22:59;98910.22;;;1.28;100.00
65276;BME280;51875;49.994;14.052;2023-01-28T01:24:14;98907.78;;;1.39;100.00
65276;BME280;51875;49.994;14.052;2023-01-28T01:25:30;98909.44;;;1.34;100.00
65276;BME280;51875;49.994;14.052;2023-01-28T01:26:45;98905.94;;;1.29;100.00
65276;BME280;51875;49.994;14.052;2023-01-28T01:28:01;98906.22;;;0.96;100.00
65276;BME280;51875;49.994;14.052;2023-01-28T01:29:16;98909.28;;;1.24;100.00
65276;BME280;51875;49.994;14.052;2023-01-28T01:30:32;98906.19;;;1.46;100.00
65276;BME280;51875;49.994;14.052;2023-01-28T01:31:48;98911.81;;;1.20;100.00
65276;BME280;51875;49.994;14.052;2023-01-28T01:33:03;98913.41;;;1.13;100.00
65276;BME280;51875;49.994;14.052;2023-01-28T01:34:19;98912.06;;;1.37;100.00
65276;BME280;51875;49.994;14.052;2023-01-28T01:35:35;98916.97;;;1.21;100.00
65276;BME280;51875;49.994;14.052;2023-01-28T01:36:50;98914.94;;;1.54;100.00
65276;BME280;51875;49.994;14.052;2023-01-28T01:38:06;98920.84;;;0.97;100.00
65276;BME280;51875;49.994;14.052;2023-01-28T01:39:22;98918.69;;;1.21;100.00
65276;BME280;51875;49.994;14.052;2023-01-28T01:40:38;98918.69;;;1.22;100.00
65276;BME280;51875;49.994;14.052;2023-01-28T01:41:53;98927.50;;;1.34;100.00
65276;BME280;51875;49.994;14.052;2023-01-28T01:43:20;98928.31;;;1.30;100.00
65276;BME280;51875;49.994;14.052;2023-01-28T01:46:06;98922.38;;;1.37;100.00
65276;BME280;51875;49.994;14.052;2023-01-28T01:47:42;98923.78;;;1.18;100.00
65276;BME280;51875;49.994;14.052;2023-01-28T01:49:07;98929.38;;;0.93;100.00
65276;BME280;51875;49.994;14.052;2023-01-28T01:50:36;98928.88;;;1.15;100.00
65276;BME280;51875;49.994;14.052;2023-01-28T01:51:59;98924.47;;;1.09;100.00
65276;BME280;51875;49.994;14.052;2023-01-28T01:53:19;98920.34;;;1.17;100.00
65276;BME280;51875;49.994;14.052;2023-01-28T01:54:37;98928.28;;;0.82;100.00
65276;BME280;51875;49.994;14.052;2023-01-28T01:55:57;98922.13;;;1.20;100.00
65276;BME280;51875;49.994;14.052;2023-01-28T01:57:18;98924.84;;;1.27;100.00
65276;BME280;51875;49.994;14.052;2023-01-28T01:58:38;98921.19;;;1.16;100.00
65276;BME280;51875;49.994;14.052;2023-01-28T01:59:55;98930.16;;;0.89;100.00
65276;BME280;51875;49.994;14.052;2023-01-28T02:01:21;98926.97;;;1.03;100.00
65276;BME280;51875;49.994;14.052;2023-01-28T02:02:41;98928.13;;;0.74;100.00
65276;BME280;51875;49.994;14.052;2023-01-28T02:04:05;98925.81;;;0.87;100.00
65276;BME280;51875;49.994;14.052;2023-01-28T02:05:23;98924.47;;;1.07;100.00
65276;BME280;51875;49.994;14.052;2023-01-28T02:06:40;98927.25;;;1.18;100.00
65276;BME280;51875;49.994;14.052;2023-01-28T02:07:57;98935.16;;;1.27;100.00
65276;BME280;51875;49.994;14.052;2023-01-28T02:09:33;98927.53;;;1.37;100.00
65276;BME280;51875;49.994;14.052;2023-01-28T02:11:00;98933.91;;;1.07;100.00
65276;BME280;51875;49.994;14.052;2023-01-28T02:12:20;98938.28;;;1.11;100.00
65276;BME280;51875;49.994;14.052;2023-01-28T02:13:43;98930.94;;;1.33;100.00
65276;BME280;51875;49.994;14.052;2023-01-28T02:15:07;98932.06;;;1.50;100.00
65276;BME280;51875;49.994;14.052;2023-01-28T02:16:24;98942.56;;;1.10;100.00
65276;BME280;51875;49.994;14.052;2023-01-28T02:17:41;98941.78;;;1.13;100.00
65276;BME280;51875;49.994;14.052;2023-01-28T02:18:57;98939.19;;;1.13;100.00
65276;BME280;51875;49.994;14.052;2023-01-28T02:20:18;98938.50;;;1.22;100.00
65276;BME280;51875;49.994;14.052;2023-01-28T02:23:47;98938.34;;;1.14;100.00
65276;BME280;51875;49.994;14.052;2023-01-28T02:30:21;98946.94;;;1.15;100.00
65276;BME280;51875;49.994;14.052;2023-01-28T02:31:57;98938.06;;;0.98;100.00
65276;BME280;51875;49.994;14.052;2023-01-28T02:34:18;98934.31;;;1.30;100.00
65276;BME280;51875;49.994;14.052;2023-01-28T02:35:49;98930.97;;;1.36;100.00
65276;BME280;51875;49.994;14.052;2023-01-28T02:38:37;98924.91;;;1.34;100.00
65276;BME280;51875;49.994;14.052;2023-01-28T02:39:58;98931.31;;;1.07;100.00
65276;BME280;51875;49.994;14.052;2023-01-28T02:41:28;98944.41;;;1.18;100.00
65276;BME280;51875;49.994;14.052;2023-01-28T02:42:46;98938.28;;;1.11;100.00
65276;BME280;51875;49.994;14.052;2023-01-28T02:44:02;98944.22;;;1.05;100.00
65276;BME280;51875;49.994;14.052;2023-01-28T02:45:36;98942.75;;;1.20;100.00
65276;BME280;51875;49.994;14.052;2023-01-28T02:47:11;98940.81;;;1.08;100.00
65276;BME280;51875;49.994;14.052;2023-01-28T02:48:45;98938.78;;;1.40;100.00
65276;BME280;51875;49.994;14.052;2023-01-28T02:50:07;98936.03;;;1.31;100.00
65276;BME280;51875;49.994;14.052;2023-01-28T02:51:42;98951.47;;;1.26;100.00
65276;BME280;51875;49.994;14.052;2023-01-28T02:53:09;98940.44;;;1.37;100.00
65276;BME280;51875;49.994;14.052;2023-01-28T02:54:59;98938.84;;;1.42;100.00
65276;BME280;51875;49.994;14.052;2023-01-28T02:56:59;98945.50;;;1.31;100.00
65276;BME280;51875;49.994;14.052;2023-01-28T02:58:54;98945.47;;;1.29;100.00
65276;BME280;51875;49.994;14.052;2023-01-28T03:00:48;98938.88;;;1.45;100.00
65276;BME280;51875;49.994;14.052;2023-01-28T03:02:14;98936.88;;;1.29;100.00
65276;BME280;51875;49.994;14.052;2023-01-28T03:03:58;98937.94;;;1.41;100.00
65276;BME280;51875;49.994;14.052;2023-01-28T03:05:37;98943.09;;;1.40;100.00
65276;BME280;51875;49.994;14.052;2023-01-28T03:06:57;98941.81;;;1.18;100.00
65276;BME280;51875;49.994;14.052;2023-01-28T03:08:14;98934.31;;;1.30;100.00
65276;BME280;51875;49.994;14.052;2023-01-28T03:09:51;98937.00;;;1.36;100.00
65276;BME280;51875;49.994;14.052;2023-01-28T03:11:07;98930.09;;;1.34;100.00
65276;BME280;51875;49.994;14.052;2023-01-28T03:12:42;98939.38;;;1.25;100.00
65276;BME280;51875;49.994;14.052;2023-01-28T03:14:18;98935.38;;;1.40;100.00
65276;BME280;51875;49.994;14.052;2023-01-28T03:15:53;98934.44;;;1.36;100.00
65276;BME280;51875;49.994;14.052;2023-01-28T03:17:35;98937.38;;;1.60;100.00
65276;BME280;51875;49.994;14.052;2023-01-28T03:19:12;98938.31;;;1.65;100.00
65276;BME280;51875;49.994;14.052;2023-01-28T03:20:53;98941.88;;;1.19;100.00
65276;BME280;51875;49.994;14.052;2023-01-28T03:22:33;98941.06;;;1.22;100.00
65276;BME280;51875;49.994;14.052;2023-01-28T03:25:55;98933.91;;;1.07;100.00
65276;BME280;51875;49.994;14.052;2023-01-28T03:27:39;98943.75;;;0.82;100.00
65276;BME280;51875;49.994;14.052;2023-01-28T03:29:16;98941.69;;;1.08;100.00
65276;BME280;51875;49.994;14.052;2023-01-28T03:30:56;98935.78;;;1.16;100.00
65276;BME280;51875;49.994;14.052;2023-01-28T03:32:32;98938.34;;;1.16;100.00
65276;BME280;51875;49.994;14.052;2023-01-28T03:34:10;98941.00;;;1.19;100.00
65276;BME280;51875;49.994;14.052;2023-01-28T03:35:45;98942.00;;;1.27;100.00
65276;BME280;51875;49.994;14.052;2023-01-28T03:37:21;98946.38;;;0.83;100.00
65276;BME280;51875;49.994;14.052;2023-01-28T03:38:39;98943.56;;;1.17;100.00
65276;BME280;51875;49.994;14.052;2023-01-28T03:40:06;98949.19;;;0.97;100.00
65276;BME280;51875;49.994;14.052;2023-01-28T03:41:23;98946.13;;;1.17;100.00
65276;BME280;51875;49.994;14.052;2023-01-28T03:42:40;98939.97;;;1.09;100.00
65276;BME280;51875;49.994;14.052;2023-01-28T03:43:55;98948.84;;;1.25;100.00
65276;BME280;51875;49.994;14.052;2023-01-28T03:45:11;98950.50;;;1.21;100.00
65276;BME280;51875;49.994;14.052;2023-01-28T03:46:28;98956.63;;;0.82;100.00
65276;BME280;51875;49.994;14.052;2023-01-28T03:47:44;98945.81;;;0.98;100.00
65276;BME280;51875;49.994;14.052;2023-01-28T03:48:59;98951.84;;;1.01;100.00
65276;BME280;51875;49.994;14.052;2023-01-28T03:50:15;98952.09;;;1.15;100.00
65276;BME280;51875;49.994;14.052;2023-01-28T03:51:30;98949.69;;;1.24;100.00
65276;BME280;51875;49.994;14.052;2023-01-28T03:52:46;98954.91;;;1.27;100.00
65276;BME280;51875;49.994;14.052;2023-01-28T03:54:02;98946.31;;;1.26;100.00
65276;BME280;51875;49.994;14.052;2023-01-28T03:55:17;98939.41;;;1.27;100.00
65276;BME280;51875;49.994;14.052;2023-01-28T03:56:33;98948.63;;;1.12;100.00
65276;BME280;51875;49.994;14.052;2023-01-28T03:57:52;98948.06;;;1.29;100.00
65276;BME280;51875;49.994;14.052;2023-01-28T03:59:08;98950.50;;;1.21;100.00
65276;BME280;51875;49.994;14.052;2023-01-28T04:00:23;98947.41;;;0.92;100.00
65276;BME280;51875;49.994;14.052;2023-01-28T04:01:39;98956.72;;;0.85;100.00
65276;BME280;51875;49.994;14.052;2023-01-28T04:02:54;98965.09;;;0.75;100.00
65276;BME280;51875;49.994;14.052;2023-01-28T04:04:10;98947.31;;;0.89;100.00
65276;BME280;51875;49.994;14.052;2023-01-28T04:05:37;98950.41;;;1.17;100.00
65276;BME280;51875;49.994;14.052;2023-01-28T04:06:53;98954.69;;;1.15;100.00
65276;BME280;51875;49.994;14.052;2023-01-28T04:08:10;98943.03;;;1.37;100.00
65276;BME280;51875;49.994;14.052;2023-01-28T04:09:26;98951.06;;;1.05;100.00
65276;BME280;51875;49.994;14.052;2023-01-28T04:10:41;98950.41;;;1.15;100.00
65276;BME280;51875;49.994;14.052;2023-01-28T04:11:58;98950.41;;;1.15;100.00
65276;BME280;51875;49.994;14.052;2023-01-28T04:13:14;98952.41;;;0.86;100.00
65276;BME280;51875;49.994;14.052;2023-01-28T04:14:29;98959.41;;;0.91;100.00
65276;BME280;51875;49.994;14.052;2023-01-28T04:15:45;98957.63;;;0.89;100.00
65276;BME280;51875;49.994;14.052;2023-01-28T04:17:01;98961.50;;;0.66;100.00
65276;BME280;51875;49.994;14.052;2023-01-28T04:18:17;98955.66;;;0.75;100.00
65276;BME280;51875;49.994;14.052;2023-01-28T04:19:34;98960.03;;;0.79;100.00
65276;BME280;51875;49.994;14.052;2023-01-28T04:20:51;98961.53;;;0.68;100.00
65276;BME280;51875;49.994;14.052;2023-01-28T04:22:09;98958.63;;;0.95;100.00
65276;BME280;51875;49.994;14.052;2023-01-28T04:23:25;98962.22;;;1.04;100.00
65276;BME280;51875;49.994;14.052;2023-01-28T04:24:41;98961.94;;;0.90;100.00
65276;BME280;51875;49.994;14.052;2023-01-28T04:25:56;98963.38;;;0.74;100.00
65276;BME280;51875;49.994;14.052;2023-01-28T04:27:12;98963.53;;;0.81;100.00
65276;BME280;51875;49.994;14.052;2023-01-28T04:28:27;98968.56;;;0.77;100.00
65276;BME280;51875;49.994;14.052;2023-01-28T04:29:43;98965.09;;;0.75;100.00
65276;BME280;51875;49.994;14.052;2023-01-28T04:30:59;98960.78;;;1.18;100.00
65276;BME280;51875;49.994;14.052;2023-01-28T04:32:14;98954.22;;;1.39;100.00
65276;BME280;51875;49.994;14.052;2023-01-28T04:33:30;98958.38;;;1.29;100.00
65276;BME280;51875;49.994;14.052;2023-01-28T04:34:46;98965.03;;;1.18;100.00
65276;BME280;51875;49.994;14.052;2023-01-28T04:36:01;98961.78;;;1.26;100.00
65276;BME280;51875;49.994;14.052;2023-01-28T04:37:17;98965.41;;;1.36;100.00
65276;BME280;51875;49.994;14.052;2023-01-28T04:38:32;98962.19;;;1.51;100.00
65276;BME280;51875;49.994;14.052;2023-01-28T04:39:48;98966.34;;;1.41;100.00
65276;BME280;51875;49.994;14.052;2023-01-28T04:41:04;98963.28;;;1.66;100.00
65276;BME280;51875;49.994;14.052;2023-01-28T04:42:19;98965.75;;;1.57;100.00
65276;BME280;51875;49.994;14.052;2023-01-28T04:43:35;98964.09;;;1.62;100.00
65276;BME280;51875;49.994;14.052;2023-01-28T04:44:51;98962.41;;;1.64;100.00
65276;BME280;51875;49.994;14.052;2023-01-28T04:46:06;98961.63;;;1.69;100.00
65276;BME280;51875;49.994;14.052;2023-01-28T04:47:22;98961.84;;;1.82;100.00
65276;BME280;51875;49.994;14.052;2023-01-28T04:48:37;98963.41;;;1.72;100.00
65276;BME280;51875;49.994;14.052;2023-01-28T04:49:53;98959.03;;;1.68;100.00
65276;BME280;51875;49.994;14.052;2023-01-28T04:51:09;98965.03;;;1.18;100.00
65276;BME280;51875;49.994;14.052;2023-01-28T04:52:24;98963.44;;;1.24;100.00
65276;BME280;51875;49.994;14.052;2023-01-28T04:53:40;98966.63;;;1.09;100.00
65276;BME280;51875;49.994;14.052;2023-01-28T04:54:56;98963.66;;;0.89;100.00
65276;BME280;51875;49.994;14.052;2023-01-28T04:56:11;98969.25;;;1.12;100.00
65276;BME280;51875;49.994;14.052;2023-01-28T04:57:27;98961.84;;;1.30;100.00
65276;BME280;51875;49.994;14.052;2023-01-28T04:58:42;98967.03;;;1.33;100.00
65276;BME280;51875;49.994;14.052;2023-01-28T04:59:58;98968.16;;;1.47;100.00
65276;BME280;51875;49.994;14.052;2023-01-28T05:01:14;98970.63;;;1.41;100.00
65276;BME280;51875;49.994;14.052;2023-01-28T05:02:29;98976.47;;;1.31;100.00
65276;BME280;51875;49.994;14.052;2023-01-28T05:03:45;98966.38;;;1.43;100.00
65276;BME280;51875;49.994;14.052;2023-01-28T05:05:01;98975.34;;;1.65;100.00
65276;BME280;51875;49.994;14.052;2023-01-28T05:06:19;98970.59;;;1.39;100.00
65276;BME280;51875;49.994;14.052;2023-01-28T05:07:35;98973.13;;;1.38;100.00
65276;BME280;51875;49.994;14.052;2023-01-28T05:08:51;98975.81;;;1.41;100.00
65276;BME280;51875;49.994;14.052;2023-01-28T05:10:07;98976.78;;;1.49;100.00
65276;BME280;51875;49.994;14.052;2023-01-28T05:11:23;98973.41;;;1.53;100.00
65276;BME280;51875;49.994;14.052;2023-01-28T05:12:39;98976.16;;;1.61;100.00
65276;BME280;51875;49.994;14.052;2023-01-28T05:13:54;98976.16;;;1.61;100.00
65276;BME280;51875;49.994;14.052;2023-01-28T05:15:10;98978.66;;;1.58;100.00
65276;BME280;51875;49.994;14.052;2023-01-28T05:16:25;98978.34;;;1.39;100.00
65276;BME280;51875;49.994;14.052;2023-01-28T05:17:41;98974.81;;;1.36;100.00
65276;BME280;51875;49.994;14.052;2023-01-28T05:18:57;98973.84;;;1.29;100.00
65276;BME280;51875;49.994;14.052;2023-01-28T05:20:13;98974.16;;;1.46;100.00
65276;BME280;51875;49.994;14.052;2023-01-28T05:21:29;98983.13;;;1.19;100.00
65276;BME280;51875;49.994;14.052;2023-01-28T05:22:45;98974.16;;;1.46;100.00
65276;BME280;51875;49.994;14.052;2023-01-28T05:24:00;98984.53;;;1.48;100.00
65276;BME280;51875;49.994;14.052;2023-01-28T05:25:16;98976.47;;;1.32;100.00
65276;BME280;51875;49.994;14.052;2023-01-28T05:26:32;98980.34;;;1.54;100.00
65276;BME280;51875;49.994;14.052;2023-01-28T05:27:51;98980.16;;;1.45;100.00
65276;BME280;51875;49.994;14.052;2023-01-28T05:29:07;98977.50;;;1.40;100.00
65276;BME280;51875;49.994;14.052;2023-01-28T05:30:22;98976.44;;;1.29;100.00
65276;BME280;51875;49.994;14.052;2023-01-28T05:31:38;98987.59;;;1.26;100.00
65276;BME280;51875;49.994;14.052;2023-01-28T05:32:54;98975.81;;;1.41;100.00
65276;BME280;51875;49.994;14.052;2023-01-28T05:34:11;98968.97;;;1.45;100.00
65276;BME280;51875;49.994;14.052;2023-01-28T05:35:26;98981.84;;;1.43;100.00
65276;BME280;51875;49.994;14.052;2023-01-28T05:36:42;98983.53;;;1.41;100.00
65276;BME280;51875;49.994;14.052;2023-01-28T05:37:57;98978.31;;;1.38;100.00
65276;BME280;51875;49.994;14.052;2023-01-28T05:39:13;98983.13;;;1.19;100.00
65276;BME280;51875;49.994;14.052;2023-01-28T05:40:29;98980.97;;;1.41;100.00
65276;BME280;51875;49.994;14.052;2023-01-28T05:41:44;98988.34;;;1.22;100.00
65276;BME280;51875;49.994;14.052;2023-01-28T05:43:00;98979.09;;;0.86;100.00
65276;BME280;51875;49.994;14.052;2023-01-28T05:44:15;98980.09;;;0.94;100.00
65276;BME280;51875;49.994;14.052;2023-01-28T05:45:31;98989.94;;;1.14;100.00
65276;BME280;51875;49.994;14.052;2023-01-28T05:46:47;98985.00;;;1.26;100.00
65276;BME280;51875;49.994;14.052;2023-01-28T05:48:02;98989.69;;;1.02;100.00
65276;BME280;51875;49.994;14.052;2023-01-28T05:49:18;98988.47;;;1.30;100.00
65276;BME280;51875;49.994;14.052;2023-01-28T05:50:34;98991.81;;;1.24;100.00
65276;BME280;51875;49.994;14.052;2023-01-28T05:51:49;98985.09;;;1.33;100.00
65276;BME280;51875;49.994;14.052;2023-01-28T05:53:05;98996.09;;;1.22;100.00
65276;BME280;51875;49.994;14.052;2023-01-28T05:54:21;98991.28;;;1.41;100.00
65276;BME280;51875;49.994;14.052;2023-01-28T05:55:37;98992.66;;;1.23;100.00
65276;BME280;51875;49.994;14.052;2023-01-28T05:56:53;98993.91;;;1.44;100.00
65276;BME280;51875;49.994;14.052;2023-01-28T05:58:08;98986.97;;;1.40;100.00
65276;BME280;51875;49.994;14.052;2023-01-28T05:59:24;98992.19;;;1.45;100.00
65276;BME280;51875;49.994;14.052;2023-01-28T06:00:40;98986.97;;;1.41;100.00
65276;BME280;51875;49.994;14.052;2023-01-28T06:01:55;98985.28;;;1.44;100.00
65276;BME280;51875;49.994;14.052;2023-01-28T06:03:11;98987.78;;;1.39;100.00
65276;BME280;51875;49.994;14.052;2023-01-28T06:04:27;98984.69;;;1.11;100.00
65276;BME280;51875;49.994;14.052;2023-01-28T06:05:42;98995.47;;;1.34;100.00
65276;BME280;51875;49.994;14.052;2023-01-28T06:06:58;98996.97;;;1.23;100.00
65276;BME280;51875;49.994;14.052;2023-01-28T06:08:14;98998.81;;;1.30;100.00
65276;BME280;51875;49.994;14.052;2023-01-28T06:09:30;99002.63;;;1.05;100.00
65276;BME280;51875;49.994;14.052;2023-01-28T06:10:45;99004.03;;;0.87;100.00
65276;BME280;51875;49.994;14.052;2023-01-28T06:12:01;98997.47;;;1.05;100.00
65276;BME280;51875;49.994;14.052;2023-01-28T06:13:16;99006.22;;;1.11;100.00
65276;BME280;51875;49.994;14.052;2023-01-28T06:14:32;99004.09;;;1.36;100.00
65276;BME280;51875;49.994;14.052;2023-01-28T06:15:48;99003.31;;;1.40;100.00
65276;BME280;51875;49.994;14.052;2023-01-28T06:17:05;99002.19;;;0.81;100.00
65276;BME280;51875;49.994;14.052;2023-01-28T06:18:20;99002.22;;;1.27;100.00
65276;BME280;51875;49.994;14.052;2023-01-28T06:19:36;99010.47;;;1.11;100.00
65276;BME280;51875;49.994;14.052;2023-01-28T06:20:52;99003.47;;;1.04;100.00
65276;BME280;51875;49.994;14.052;2023-01-28T06:22:07;99004.63;;;1.18;100.00
65276;BME280;51875;49.994;14.052;2023-01-28T06:23:23;99013.16;;;1.14;100.00
65276;BME280;51875;49.994;14.052;2023-01-28T06:24:38;99014.97;;;1.21;100.00
65276;BME280;51875;49.994;14.052;2023-01-28T06:25:55;99016.94;;;1.35;100.00
65276;BME280;51875;49.994;14.052;2023-01-28T06:27:11;99015.25;;;1.37;100.00
65276;BME280;51875;49.994;14.052;2023-01-28T06:28:26;99022.19;;;1.39;100.00
65276;BME280;51875;49.994;14.052;2023-01-28T06:29:42;99022.63;;;1.15;100.00
65276;BME280;51875;49.994;14.052;2023-01-28T06:30:58;99023.97;;;1.42;100.00
65276;BME280;51875;49.994;14.052;2023-01-28T06:32:13;99017.31;;;1.55;100.00
65276;BME280;51875;49.994;14.052;2023-01-28T06:33:29;99021.63;;;1.56;100.00
65276;BME280;51875;49.994;14.052;2023-01-28T06:34:44;99023.22;;;1.48;100.00
65276;BME280;51875;49.994;14.052;2023-01-28T06:36:04;99025.44;;;1.27;100.00
65276;BME280;51875;49.994;14.052;2023-01-28T06:37:20;99027.22;;;1.32;100.00
65276;BME280;51875;49.994;14.052;2023-01-28T06:38:36;99020.44;;;1.37;100.00
65276;BME280;51875;49.994;14.052;2023-01-28T06:39:52;99024.06;;;1.48;100.00
65276;BME280;51875;49.994;14.052;2023-01-28T06:41:07;99027.81;;;1.18;100.00
65276;BME280;51875;49.994;14.052;2023-01-28T06:42:23;99035.50;;;1.15;100.00
65276;BME280;51875;49.994;14.052;2023-01-28T06:43:39;99031.59;;;1.34;100.00
65276;BME280;51875;49.994;14.052;2023-01-28T06:44:55;99021.97;;;1.27;100.00
65276;BME280;51875;49.994;14.052;2023-01-28T06:46:10;99034.81;;;1.24;100.00
65276;BME280;51875;49.994;14.052;2023-01-28T06:47:26;99034.31;;;0.99;100.00
65276;BME280;51875;49.994;14.052;2023-01-28T06:48:41;99038.38;;;0.88;100.00
65276;BME280;51875;49.994;14.052;2023-01-28T06:49:57;99039.47;;;0.99;100.00
65276;BME280;51875;49.994;14.052;2023-01-28T06:51:12;99034.22;;;1.37;100.00
65276;BME280;51875;49.994;14.052;2023-01-28T06:52:28;99037.84;;;1.04;100.00
65276;BME280;51875;49.994;14.052;2023-01-28T06:53:43;99040.31;;;0.98;100.00
65276;BME280;51875;49.994;14.052;2023-01-28T06:54:59;99037.75;;;0.98;100.00
65276;BME280;51875;49.994;14.052;2023-01-28T06:56:15;99037.94;;;1.09;100.00
65276;BME280;51875;49.994;14.052;2023-01-28T06:57:31;99045.53;;;1.00;100.00
65276;BME280;51875;49.994;14.052;2023-01-28T06:58:46;99042.41;;;1.16;100.00
65276;BME280;51875;49.994;14.052;2023-01-28T07:00:03;99044.63;;;1.44;100.00
65276;BME280;51875;49.994;14.052;2023-01-28T07:01:19;99050.53;;;1.38;100.00
65276;BME280;51875;49.994;14.052;2023-01-28T07:02:34;99043.25;;;1.61;100.00
65276;BME280;51875;49.994;14.052;2023-01-28T07:03:50;99052.22;;;1.36;100.00
65276;BME280;51875;49.994;14.052;2023-01-28T07:05:06;99049.88;;;1.47;100.00
65276;BME280;51875;49.994;14.052;2023-01-28T07:06:22;99058.69;;;1.60;100.00